Time;durP1;ratioP1;P1;durP2;ratioP2;P2;SDS_P1;SDS_P2;PMS_P1;PMS_P2;Temp;Humidity;BMP_temperature;BMP_pressure;BME280_temperature;BME280_humidity;BME280_pressure;Samples;Min_cycle;Max_cycle;Signal;HPM_P1;HPM_P2
2021/12/12 00:00:54;;;;;;;16.50;12.20;;;;;;;7.90;81.32;93487.28;5076760;28;20201;-71
2021/12/12 00:03:33;;;;;;;13.27;11.45;;;;;;;7.83;81.59;93483.66;5077494;28;20590;-71
2021/12/12 00:06:04;;;;;;;12.32;11.02;;;;;;;7.78;81.58;93482.06;5077870;28;20181;-71
2021/12/12 00:08:31;;;;;;;12.52;11.20;;;;;;;7.73;82.13;93479.63;5077726;28;20195;-71
2021/12/12 00:11:02;;;;;;;6.60;6.00;;;;;;;7.69;81.30;93500.75;5077621;28;20205;-71
2021/12/12 00:13:32;;;;;;;6.70;5.50;;;;;;;7.70;81.19;93510.59;5093828;28;20189;-71
2021/12/12 00:15:58;;;;;;;5.10;4.65;;;;;;;7.70;81.43;93522.34;5077596;28;20196;-71
2021/12/12 00:18:27;;;;;;;4.43;4.00;;;;;;;7.70;80.89;93521.56;5077581;28;20590;-71
2021/12/12 00:20:54;;;;;;;3.58;3.28;;;;;;;7.71;80.86;93534.09;5077620;28;20181;-71
2021/12/12 00:23:21;;;;;;;4.00;3.33;;;;;;;7.72;80.45;93530.97;5077215;28;20185;-71
2021/12/12 00:25:50;;;;;;;3.55;3.25;;;;;;;7.71;80.80;93521.19;5093484;28;20219;-71
2021/12/12 00:28:19;;;;;;;3.35;3.05;;;;;;;7.70;80.77;93536.06;5076525;28;20628;-71
2021/12/12 00:30:47;;;;;;;1.80;1.70;;;;;;;7.71;78.73;93550.56;5077192;28;20224;-71
2021/12/12 00:33:14;;;;;;;1.00;1.00;;;;;;;7.82;75.86;93562.47;5093269;28;20201;-71
2021/12/12 00:35:43;;;;;;;0.90;0.90;;;;;;;7.94;75.21;93561.47;5076989;28;20621;-71
2021/12/12 00:38:13;;;;;;;0.70;0.70;;;;;;;7.97;74.57;93557.97;5077248;28;20177;-71
2021/12/12 00:40:43;;;;;;;0.80;0.80;;;;;;;8.04;75.15;93565.50;5077159;28;20174;-71
2021/12/12 00:43:15;;;;;;;0.70;0.70;;;;;;;8.01;74.96;93561.53;5076785;28;20601;-71
2021/12/12 00:45:42;;;;;;;1.25;0.93;;;;;;;8.00;75.09;93575.66;5077235;28;20177;-71
2021/12/12 00:48:09;;;;;;;1.00;1.00;;;;;;;8.01;75.16;93575.28;5076227;28;20193;-71
2021/12/12 00:50:38;;;;;;;0.90;0.90;;;;;;;7.92;75.33;93603.03;5076546;28;20205;-71
2021/12/12 00:53:08;;;;;;;0.80;0.80;;;;;;;7.84;74.89;93603.28;5076638;28;20219;-71
2021/12/12 00:55:38;;;;;;;1.00;1.00;;;;;;;7.80;75.36;93607.94;5077149;28;20191;-71
2021/12/12 00:58:05;;;;;;;0.85;0.80;;;;;;;7.79;75.67;93625.56;5077098;28;20312;-71
2021/12/12 01:00:36;;;;;;;1.30;0.93;;;;;;;7.72;74.95;93618.81;5076724;28;20197;-71
2021/12/12 01:03:04;;;;;;;0.90;0.90;;;;;;;7.73;74.75;93616.84;5093420;28;20193;-71
2021/12/12 01:05:32;;;;;;;0.90;0.80;;;;;;;7.72;75.42;93615.28;5076712;28;20181;-71
2021/12/12 01:07:59;;;;;;;1.10;1.10;;;;;;;7.75;74.98;93605.50;5075388;28;20648;-71
2021/12/12 01:10:31;;;;;;;0.60;0.60;;;;;;;7.70;74.22;93604.69;5076499;28;20201;-71
2021/12/12 01:13:02;;;;;;;0.73;0.73;;;;;;;7.74;75.04;93603.94;5074830;28;20645;-71
2021/12/12 01:15:32;;;;;;;0.70;0.70;;;;;;;7.73;75.76;93616.84;5092931;28;20200;-71
2021/12/12 01:18:01;;;;;;;0.73;0.73;;;;;;;7.69;74.09;93607.78;5092406;28;20204;-71
2021/12/12 01:20:33;;;;;;;0.93;0.93;;;;;;;7.64;74.66;93614.38;5076412;28;20296;-71
2021/12/12 01:23:04;;;;;;;0.90;0.90;;;;;;;7.67;75.44;93618.34;5076284;28;20223;-71
2021/12/12 01:25:42;;;;;;;0.88;0.88;;;;;;;7.64;74.95;93616.34;5092235;28;20677;-71
2021/12/12 01:28:09;;;;;;;0.90;0.90;;;;;;;7.62;75.01;93607.66;5075365;28;20618;-71
2021/12/12 01:30:36;;;;;;;0.90;0.90;;;;;;;7.59;75.35;93601.00;5075164;28;20223;-71
2021/12/12 01:33:04;;;;;;;0.80;0.80;;;;;;;7.59;75.05;93611.97;5075809;28;20195;-71
2021/12/12 01:35:32;;;;;;;1.17;0.98;;;;;;;7.58;75.51;93613.09;5076113;28;20291;-71
2021/12/12 01:40:51;;;;;;;1.70;1.50;;;;;;;7.42;75.74;93616.00;5076006;28;20264;-71
2021/12/12 01:43:22;;;;;;;1.70;1.60;;;;;;;7.27;75.90;93621.66;5076130;28;20173;-70
2021/12/12 01:45:52;;;;;;;1.77;1.52;;;;;;;7.12;76.39;93623.34;5092124;28;20201;-71
2021/12/12 01:48:22;;;;;;;1.00;1.00;;;;;;;7.04;76.40;93611.44;5075910;28;20201;-71
2021/12/12 01:50:54;;;;;;;1.33;1.23;;;;;;;6.94;76.59;93623.06;5075533;28;20224;-71
2021/12/12 01:53:23;;;;;;;1.00;1.00;;;;;;;6.78;77.08;93630.56;5074371;28;20657;-70
2021/12/12 01:55:55;;;;;;;1.08;1.08;;;;;;;6.75;77.25;93629.34;5074959;28;20212;-70
2021/12/12 01:58:24;;;;;;;1.25;1.15;;;;;;;6.70;77.53;93635.91;5074809;28;20197;-70
2021/12/12 02:00:55;;;;;;;2.03;1.10;;;;;;;6.68;77.46;93635.50;5057932;28;20193;-70
2021/12/12 02:03:23;;;;;;;0.80;0.80;;;;;;;6.69;77.06;93647.25;5075276;28;20189;-70
2021/12/12 02:05:51;;;;;;;0.98;0.98;;;;;;;6.70;77.27;93652.34;5074835;28;20193;-70
2021/12/12 02:08:19;;;;;;;1.73;1.20;;;;;;;6.72;77.19;93650.06;5075472;28;20191;-70
2021/12/12 02:10:50;;;;;;;1.55;1.10;;;;;;;6.69;77.25;93659.00;5091463;28;20217;-70
2021/12/12 02:13:20;;;;;;;0.90;0.90;;;;;;;6.64;76.76;93653.81;5074635;28;20288;-70
2021/12/12 02:15:50;;;;;;;1.98;1.10;;;;;;;6.68;76.72;93651.13;5075481;28;20192;-71
2021/12/12 02:18:26;;;;;;;1.40;1.30;;;;;;;6.69;76.55;93636.28;5074685;28;20200;-71
2021/12/12 02:21:06;;;;;;;1.52;1.20;;;;;;;6.72;77.00;93635.56;5074206;28;20216;-71
2021/12/12 02:23:48;;;;;;;1.27;1.17;;;;;;;6.76;76.93;93641.91;5074883;28;20191;-71
2021/12/12 02:37:12;;;;;;;1.60;1.50;;;;;;;6.84;76.26;93668.28;5074014;28;20204;-71
2021/12/12 02:39:42;;;;;;;2.25;1.80;;;;;;;6.83;76.56;93674.94;5075134;28;20189;-71
2021/12/12 02:42:11;;;;;;;2.67;2.40;;;;;;;6.83;76.03;93687.84;5074353;28;20200;-71
2021/12/12 02:44:40;;;;;;;2.60;2.40;;;;;;;6.79;76.05;93679.56;5074777;28;20207;-71
2021/12/12 02:47:13;;;;;;;2.92;2.72;;;;;;;6.68;76.56;93693.03;5075102;28;20204;-71
2021/12/12 02:49:53;;;;;;;2.38;2.20;;;;;;;6.67;76.68;93696.13;5075037;28;20225;-71
2021/12/12 02:52:23;;;;;;;2.10;2.00;;;;;;;6.69;77.12;93702.06;5074929;28;20295;-71
2021/12/12 02:54:51;;;;;;;2.13;1.92;;;;;;;6.71;76.94;93697.78;5073626;28;20229;-71
2021/12/12 02:57:19;;;;;;;1.75;1.65;;;;;;;6.72;76.54;93704.88;5073760;28;20192;-71
2021/12/12 02:59:50;;;;;;;1.65;1.55;;;;;;;6.72;76.24;93704.06;5074847;28;20524;-71
2021/12/12 03:02:21;;;;;;;1.58;1.40;;;;;;;6.73;75.98;93714.66;5074910;28;20185;-71
2021/12/12 03:04:48;;;;;;;1.20;1.10;;;;;;;6.77;76.07;93705.72;5074996;28;20261;-70
2021/12/12 03:07:15;;;;;;;1.85;0.98;;;;;;;6.77;75.86;93697.50;5074886;28;20195;-70
2021/12/12 03:09:45;;;;;;;1.30;1.20;;;;;;;6.77;76.25;93709.25;5075215;28;20197;-70
2021/12/12 03:12:17;;;;;;;1.10;1.10;;;;;;;6.75;75.65;93719.78;5090920;28;20300;-70
2021/12/12 03:14:44;;;;;;;1.10;1.10;;;;;;;6.75;76.30;93723.31;5074627;28;20515;-70
2021/12/12 03:17:14;;;;;;;1.30;1.20;;;;;;;6.78;75.86;93727.28;5074747;28;20204;-70
2021/12/12 03:19:41;;;;;;;1.00;1.00;;;;;;;6.75;75.92;93728.00;5074905;28;20197;-71
2021/12/12 03:22:10;;;;;;;0.88;0.88;;;;;;;6.67;75.95;93734.50;5073945;28;20193;-71
2021/12/12 03:24:37;;;;;;;1.08;1.08;;;;;;;6.71;75.91;93733.41;5090915;28;20199;-71
2021/12/12 03:27:06;;;;;;;1.10;1.00;;;;;;;6.75;76.29;93728.00;5074412;28;20258;-71
2021/12/12 03:29:34;;;;;;;1.20;1.00;;;;;;;6.77;75.98;93742.13;5074374;28;20594;-71
2021/12/12 03:32:06;;;;;;;0.80;0.80;;;;;;;6.80;75.92;93743.38;5090621;28;20213;-71
2021/12/12 03:34:37;;;;;;;1.10;1.00;;;;;;;6.81;76.05;93737.53;5074164;28;20201;-70
2021/12/12 03:37:06;;;;;;;0.93;0.93;;;;;;;6.80;75.65;93763.34;5077187;28;20539;-71
2021/12/12 03:39:36;;;;;;;1.42;1.30;;;;;;;6.77;75.97;93768.75;5094334;28;20204;-71
2021/12/12 03:42:07;;;;;;;1.70;1.60;;;;;;;6.71;76.05;93782.72;5077592;28;20204;-71
2021/12/12 03:44:37;;;;;;;1.27;1.27;;;;;;;6.69;76.08;93778.78;5094095;28;20208;-71
2021/12/12 03:47:15;;;;;;;1.42;1.33;;;;;;;6.63;75.99;93786.47;5078246;28;20196;-71
2021/12/12 03:49:42;;;;;;;2.45;2.30;;;;;;;6.56;75.71;93785.53;5094331;28;20192;-71
2021/12/12 03:52:11;;;;;;;1.92;1.83;;;;;;;6.50;75.64;93793.25;5093845;28;20568;-71
2021/12/12 03:54:39;;;;;;;1.70;1.60;;;;;;;6.40;75.50;93796.53;5078350;28;20248;-71
2021/12/12 03:57:06;;;;;;;1.80;1.70;;;;;;;6.35;75.59;93803.06;5078020;28;20197;-71
2021/12/12 03:59:36;;;;;;;1.90;1.80;;;;;;;6.32;75.64;93803.81;5077707;28;20211;-71
2021/12/12 04:02:04;;;;;;;2.05;1.92;;;;;;;6.19;75.03;93802.31;5077895;28;20190;-71
2021/12/12 04:04:33;;;;;;;2.40;2.20;;;;;;;6.16;75.60;93806.56;5077815;28;20207;-71
2021/12/12 04:07:01;;;;;;;2.72;2.53;;;;;;;6.07;75.36;93819.66;5078273;28;20189;-71
2021/12/12 04:09:29;;;;;;;2.40;2.30;;;;;;;6.03;75.25;93811.34;5076615;28;20211;-70
2021/12/12 04:11:57;;;;;;;1.70;1.60;;;;;;;5.96;74.91;93816.66;5077668;28;20220;-70
2021/12/12 04:14:25;;;;;;;2.17;1.88;;;;;;;5.87;74.33;93831.63;5077626;28;20185;-71
2021/12/12 04:16:56;;;;;;;1.70;1.60;;;;;;;5.83;74.91;93838.94;5076559;28;20201;-71
2021/12/12 04:19:23;;;;;;;1.40;1.30;;;;;;;5.75;74.27;93844.25;5077650;28;20203;-71
2021/12/12 04:21:50;;;;;;;1.40;1.30;;;;;;;5.68;74.00;93848.75;5077864;28;20181;-71
2021/12/12 04:24:20;;;;;;;1.20;1.20;;;;;;;5.64;74.15;93847.84;5076996;28;20197;-71
2021/12/12 04:26:47;;;;;;;1.30;1.20;;;;;;;5.64;74.19;93853.31;5077585;28;20200;-71
2021/12/12 04:29:16;;;;;;;1.25;1.15;;;;;;;5.57;73.99;93861.34;5077246;28;20178;-71
2021/12/12 04:31:45;;;;;;;1.00;1.00;;;;;;;5.58;74.33;93866.44;5093480;28;20213;-71
2021/12/12 04:34:14;;;;;;;1.13;1.13;;;;;;;5.59;74.30;93867.25;5076650;28;20204;-71
2021/12/12 04:36:43;;;;;;;1.20;1.20;;;;;;;5.41;73.48;93889.47;5076976;28;20187;-71
2021/12/12 04:39:12;;;;;;;1.30;1.20;;;;;;;5.37;74.32;93882.28;5076951;28;20544;-71
2021/12/12 04:41:40;;;;;;;1.80;1.70;;;;;;;5.38;73.85;93886.63;5076427;28;20295;-71
2021/12/12 04:44:07;;;;;;;2.00;1.90;;;;;;;5.32;73.40;93891.53;5077202;28;20212;-71
2021/12/12 04:49:54;;;;;;;2.85;2.60;;;;;;;5.21;73.30;93902.16;5075506;28;20201;-71
2021/12/12 04:52:12;;;;;;;1.90;1.80;;;;;;;5.11;73.47;93921.78;5076477;28;20269;-70
2021/12/12 04:54:44;;;;;;;1.70;1.60;;;;;;;5.13;73.53;93922.25;5076102;28;20233;-70
2021/12/12 04:57:14;;;;;;;1.40;1.30;;;;;;;5.12;73.22;93925.31;5076917;28;20192;-71
2021/12/12 04:59:43;;;;;;;1.10;1.10;;;;;;;5.10;73.34;93927.59;5092769;28;20534;-71
2021/12/12 05:02:15;;;;;;;0.90;0.90;;;;;;;5.11;72.94;93926.47;5092900;28;20195;-70
2021/12/12 05:04:48;;;;;;;1.10;0.98;;;;;;;5.07;72.86;93926.34;5076677;28;20230;-70
2021/12/12 05:07:18;;;;;;;1.40;1.20;;;;;;;5.06;72.60;93928.28;5093194;28;20628;-70
2021/12/12 05:09:50;;;;;;;1.00;1.00;;;;;;;5.06;72.61;93939.22;5092634;28;20201;-70
2021/12/12 05:12:20;;;;;;;1.45;1.30;;;;;;;4.99;72.21;93949.16;5075746;28;20572;-70
2021/12/12 05:14:52;;;;;;;0.90;0.90;;;;;;;4.91;72.92;93948.16;5076575;28;20196;-70
2021/12/12 05:17:23;;;;;;;1.40;1.30;;;;;;;4.85;72.20;93974.09;5076479;28;20192;-70
2021/12/12 05:19:54;;;;;;;1.17;1.10;;;;;;;4.79;72.67;93973.56;5076470;28;20196;-70
2021/12/12 05:22:34;;;;;;;1.08;1.08;;;;;;;4.86;73.47;93986.63;5076586;28;20191;-70
2021/12/12 05:25:05;;;;;;;1.30;1.20;;;;;;;4.83;72.41;93985.38;5076458;28;20199;-71
2021/12/12 05:27:32;;;;;;;1.30;1.20;;;;;;;4.77;72.43;93997.66;5076266;28;20204;-70
2021/12/12 05:30:01;;;;;;;1.20;1.10;;;;;;;4.72;72.87;93994.38;5076430;28;20193;-70
2021/12/12 05:32:30;;;;;;;0.90;0.90;;;;;;;4.56;72.09;93988.78;5076272;28;20205;-70
2021/12/12 05:35:01;;;;;;;1.30;1.20;;;;;;;4.60;72.73;93997.91;5075868;28;20188;-70
2021/12/12 05:37:28;;;;;;;1.00;1.00;;;;;;;4.59;72.42;93990.84;5075171;28;20193;-70
2021/12/12 05:39:55;;;;;;;1.10;1.10;;;;;;;4.56;72.87;93992.31;5076120;28;20201;-71
2021/12/12 05:42:22;;;;;;;0.90;0.90;;;;;;;4.44;72.80;93999.72;5076019;28;20193;-70
2021/12/12 05:44:49;;;;;;;1.40;1.30;;;;;;;4.43;72.54;94001.66;5091924;28;20193;-70
2021/12/12 05:47:16;;;;;;;1.00;1.00;;;;;;;4.44;72.99;94002.44;5075257;28;20196;-71
2021/12/12 05:49:43;;;;;;;1.00;1.00;;;;;;;4.43;72.97;94012.59;5092232;28;20197;-71
2021/12/12 05:52:13;;;;;;;1.00;1.00;;;;;;;4.38;72.02;94026.44;5075679;28;20224;-71
2021/12/12 05:54:40;;;;;;;1.25;1.25;;;;;;;4.28;72.58;94049.50;5074625;28;20233;-70
2021/12/12 05:57:09;;;;;;;1.40;1.30;;;;;;;4.26;73.02;94064.63;5075220;28;20203;-70
2021/12/12 05:59:38;;;;;;;1.33;1.23;;;;;;;4.30;72.81;94071.00;5075833;28;20264;-70
2021/12/12 06:02:06;;;;;;;1.00;1.00;;;;;;;4.37;72.44;94070.47;5075823;28;20200;-70
2021/12/12 06:04:33;;;;;;;1.83;1.30;;;;;;;4.41;72.65;94085.81;5075454;28;20208;-70
2021/12/12 06:07:02;;;;;;;1.65;1.55;;;;;;;4.42;72.46;94078.44;5075602;28;20173;-70
2021/12/12 06:09:31;;;;;;;1.60;1.50;;;;;;;4.40;72.28;94075.25;5074808;28;20285;-70
2021/12/12 06:11:59;;;;;;;1.17;1.17;;;;;;;4.44;72.21;94089.81;5091818;28;20217;-70
2021/12/12 06:14:26;;;;;;;1.67;1.58;;;;;;;4.44;72.33;94092.56;5091444;28;20205;-70
2021/12/12 06:16:53;;;;;;;1.63;1.52;;;;;;;4.46;72.77;94085.59;5074417;28;20308;-70
2021/12/12 06:19:22;;;;;;;1.40;1.30;;;;;;;4.45;72.17;94080.50;5075391;28;20181;-70
2021/12/12 06:21:52;;;;;;;1.60;1.50;;;;;;;4.34;71.76;94085.59;5075434;28;20208;-70
2021/12/12 06:24:19;;;;;;;1.60;1.50;;;;;;;4.40;72.03;94094.38;5074468;28;20254;-70
2021/12/12 06:26:48;;;;;;;1.92;1.67;;;;;;;4.26;71.84;94100.91;5074312;28;20537;-70
2021/12/12 06:29:15;;;;;;;1.50;1.40;;;;;;;4.14;71.44;94110.97;5075258;28;20197;-70
2021/12/12 06:31:44;;;;;;;1.40;1.30;;;;;;;4.19;71.85;94114.31;5074278;28;20221;-70
2021/12/12 06:34:12;;;;;;;1.55;1.45;;;;;;;4.20;71.54;94121.34;5075051;28;20191;-70
2021/12/12 06:36:39;;;;;;;1.23;1.20;;;;;;;4.21;71.25;94127.59;5073892;28;20621;-70
2021/12/12 06:39:08;;;;;;;1.23;1.20;;;;;;;4.20;71.41;94121.34;5091313;28;20529;-71
2021/12/12 06:41:36;;;;;;;1.38;1.30;;;;;;;4.16;70.90;94136.00;5075077;28;20196;-71
2021/12/12 06:44:05;;;;;;;1.20;1.10;;;;;;;4.18;71.52;94145.47;5074220;28;20203;-71
2021/12/12 06:46:33;;;;;;;1.25;1.25;;;;;;;4.15;71.05;94151.59;5074408;28;20213;-71
2021/12/12 06:49:02;;;;;;;1.05;1.05;;;;;;;4.13;70.46;94148.38;5075351;28;20186;-71
2021/12/12 06:51:29;;;;;;;1.05;1.05;;;;;;;4.14;71.75;94163.66;5074924;28;20201;-70
2021/12/12 06:53:56;;;;;;;1.13;1.10;;;;;;;4.16;70.62;94169.56;5075071;28;20239;-70
2021/12/12 06:56:24;;;;;;;0.90;0.90;;;;;;;4.07;70.16;94161.47;5074156;28;20196;-69
2021/12/12 06:58:51;;;;;;;0.98;0.93;;;;;;;4.12;70.91;94176.81;5074252;28;20203;-67
2021/12/12 07:01:22;;;;;;;1.10;1.10;;;;;;;4.09;70.46;94178.28;5074962;28;20204;-71
2021/12/12 07:03:49;;;;;;;1.00;1.00;;;;;;;4.05;70.24;94184.75;5074348;28;20196;-71
2021/12/12 07:06:18;;;;;;;0.98;0.98;;;;;;;4.06;70.51;94184.41;5074157;28;20236;-70
2021/12/12 07:08:45;;;;;;;1.10;1.10;;;;;;;4.12;70.50;94193.19;5073952;28;20212;-71
2021/12/12 07:11:16;;;;;;;1.10;1.10;;;;;;;4.10;70.73;94196.28;5077064;28;20204;-71
2021/12/12 07:13:43;;;;;;;1.30;1.20;;;;;;;4.05;71.79;94206.56;5078098;28;20217;-69
2021/12/12 07:16:10;;;;;;;0.98;0.98;;;;;;;4.00;71.28;94198.59;5095012;28;20630;-68
2021/12/12 07:18:38;;;;;;;0.90;0.90;;;;;;;3.99;71.72;94205.16;5078535;28;20232;-69
2021/12/12 07:21:08;;;;;;;0.98;0.98;;;;;;;3.99;71.87;94208.69;5078663;28;20189;-69
2021/12/12 07:23:35;;;;;;;1.35;1.25;;;;;;;3.97;71.56;94219.16;5078836;28;20212;-71
2021/12/12 07:26:04;;;;;;;1.10;1.10;;;;;;;3.82;71.83;94219.75;5077992;28;20193;-71
2021/12/12 07:28:32;;;;;;;1.35;1.30;;;;;;;3.81;72.17;94221.69;5078253;28;20193;-72
2021/12/12 07:31:00;;;;;;;1.42;1.33;;;;;;;3.70;71.56;94223.16;5094489;28;20532;-70
2021/12/12 07:33:29;;;;;;;1.20;1.20;;;;;;;3.71;71.22;94243.06;5078380;28;20300;-70
2021/12/12 07:35:59;;;;;;;1.00;1.00;;;;;;;3.77;72.13;94250.72;5078108;28;20589;-71
2021/12/12 07:38:28;;;;;;;1.00;1.00;;;;;;;3.76;71.67;94248.31;5078114;28;20679;-70
2021/12/12 07:40:55;;;;;;;1.02;1.02;;;;;;;3.70;72.53;94247.69;5094410;28;20203;-71
2021/12/12 07:43:22;;;;;;;1.10;1.10;;;;;;;3.72;72.11;94261.03;5078231;28;20196;-70
2021/12/12 07:45:50;;;;;;;1.30;1.20;;;;;;;3.58;72.96;94255.81;5077218;28;20205;-71
2021/12/12 07:48:17;;;;;;;1.45;1.35;;;;;;;3.58;72.53;94263.97;5078270;28;20523;-71
2021/12/12 07:50:46;;;;;;;1.40;1.30;;;;;;;3.54;72.73;94274.75;5094231;28;20287;-71
2021/12/12 07:53:15;;;;;;;1.55;1.45;;;;;;;3.62;72.77;94273.09;5076925;28;20232;-70
2021/12/12 07:55:43;;;;;;;1.40;1.30;;;;;;;3.70;72.16;94282.38;5078062;28;20189;-71
2021/12/12 07:58:13;;;;;;;1.73;1.63;;;;;;;3.73;72.38;94287.97;5076848;28;20196;-71
2021/12/12 08:00:43;;;;;;;1.40;1.30;;;;;;;3.77;71.87;94290.84;5077105;28;20537;-71
2021/12/12 08:03:10;;;;;;;1.30;1.20;;;;;;;3.73;71.45;94303.53;5077945;28;20188;-71
2021/12/12 08:05:37;;;;;;;1.25;1.25;;;;;;;3.75;72.63;94307.53;5077897;28;20196;-71
2021/12/12 08:08:06;;;;;;;1.63;1.52;;;;;;;3.77;71.85;94321.63;5077855;28;20246;-71
2021/12/12 08:10:37;;;;;;;1.17;1.13;;;;;;;3.79;71.94;94315.88;5076990;28;20201;-71
2021/12/12 08:13:04;;;;;;;1.52;1.42;;;;;;;3.79;71.67;94333.03;5077814;28;20209;-71
2021/12/12 08:15:31;;;;;;;1.50;1.40;;;;;;;3.83;72.03;94330.44;5077487;28;20192;-71
2021/12/12 08:18:00;;;;;;;1.45;1.38;;;;;;;3.85;71.93;94350.03;5077579;28;20181;-70
2021/12/12 08:20:27;;;;;;;1.50;1.40;;;;;;;3.86;72.11;94341.50;5077009;28;20192;-71
2021/12/12 08:22:55;;;;;;;1.70;1.60;;;;;;;3.86;72.01;94335.25;5077274;28;20173;-71
2021/12/12 08:25:22;;;;;;;1.60;1.50;;;;;;;3.85;72.48;94334.47;5077776;28;20195;-69
2021/12/12 08:27:51;;;;;;;1.70;1.60;;;;;;;3.85;72.72;94341.84;5076292;28;20201;-70
2021/12/12 08:30:19;;;;;;;1.85;1.70;;;;;;;3.79;71.77;94343.16;5077478;28;20196;-70
2021/12/12 08:32:48;;;;;;;2.92;2.72;;;;;;;3.82;72.79;94358.84;5076055;28;20229;-69
2021/12/12 08:35:16;;;;;;;2.28;2.10;;;;;;;3.80;72.91;94353.72;5077233;28;20181;-68
2021/12/12 08:37:45;;;;;;;2.00;1.90;;;;;;;3.83;72.93;94355.78;5093775;28;20198;-68
2021/12/12 08:40:15;;;;;;;2.20;2.00;;;;;;;3.85;72.80;94348.09;5076963;28;20200;-70
2021/12/12 08:42:42;;;;;;;2.42;2.25;;;;;;;3.86;72.30;94357.88;5076876;28;20610;-70
2021/12/12 08:45:13;;;;;;;1.85;1.75;;;;;;;3.76;71.60;94352.78;5077237;28;20190;-70
2021/12/12 08:47:40;;;;;;;1.73;1.63;;;;;;;3.63;71.31;94361.97;5076134;28;20192;-70
2021/12/12 08:50:10;;;;;;;3.03;2.83;;;;;;;3.60;70.92;94363.44;5076387;28;20200;-70
2021/12/12 08:52:40;;;;;;;2.45;2.25;;;;;;;3.63;70.78;94372.88;5076768;28;20208;-70
2021/12/12 08:55:18;;;;;;;2.08;1.98;;;;;;;3.64;70.96;94377.22;5077161;28;20241;-70
2021/12/12 08:57:52;;;;;;;1.58;1.48;;;;;;;3.55;70.68;94385.41;5076682;28;20189;-70
2021/12/12 09:00:22;;;;;;;1.70;1.60;;;;;;;3.49;71.21;94381.28;5093213;28;20253;-70
2021/12/12 09:02:50;;;;;;;1.80;1.70;;;;;;;3.48;71.06;94384.31;5076725;28;20220;-70
2021/12/12 09:05:21;;;;;;;1.58;1.48;;;;;;;3.41;70.81;94389.44;5076884;28;20178;-70
2021/12/12 09:07:51;;;;;;;1.63;1.52;;;;;;;3.33;72.26;94393.78;5076533;28;20215;-70
2021/12/12 09:10:25;;;;;;;1.55;1.45;;;;;;;3.34;72.19;94390.75;5075944;28;20291;-70
2021/12/12 09:12:56;;;;;;;1.60;1.50;;;;;;;3.32;72.23;94408.56;5076450;28;20574;-70
2021/12/12 09:15:26;;;;;;;1.65;1.55;;;;;;;3.25;72.68;94398.13;5092632;28;20197;-70
2021/12/12 09:17:57;;;;;;;1.75;1.65;;;;;;;3.24;72.58;94396.53;5076655;28;20199;-70
2021/12/12 09:20:32;;;;;;;1.42;1.40;;;;;;;3.24;73.08;94393.81;5075442;28;20201;-70
2021/12/12 09:23:06;;;;;;;1.50;1.40;;;;;;;3.26;72.67;94394.28;5075847;28;20276;-70
2021/12/12 09:25:39;;;;;;;1.55;1.45;;;;;;;3.28;72.08;94405.69;5092388;28;20204;-70
2021/12/12 09:28:10;;;;;;;1.77;1.67;;;;;;;3.30;72.23;94408.88;5075564;28;20606;-70
2021/12/12 09:30:38;;;;;;;1.75;1.65;;;;;;;3.34;71.58;94411.75;5076174;28;20303;-70
2021/12/12 09:33:13;;;;;;;1.33;1.30;;;;;;;3.33;70.81;94407.44;5075241;28;20223;-70
2021/12/12 09:35:45;;;;;;;1.50;1.40;;;;;;;3.30;70.98;94414.31;5076193;28;20572;-70
2021/12/12 09:38:15;;;;;;;3.10;1.42;;;;;;;3.29;70.42;94411.91;5076098;28;20189;-70
2021/12/12 09:41:01;;;;;;;1.63;1.52;;;;;;;3.22;70.32;94414.34;5074835;28;20539;-70
2021/12/12 09:43:40;;;;;;;1.75;1.65;;;;;;;3.11;70.80;94420.09;5075960;28;20181;-70
2021/12/12 09:46:21;;;;;;;1.67;1.58;;;;;;;3.08;71.44;94419.94;5075496;28;20204;-70
2021/12/12 09:52:24;;;;;;;2.70;2.50;;;;;;;3.10;71.41;94417.72;5074619;28;20193;-70
2021/12/12 09:54:56;;;;;;;3.20;2.90;;;;;;;3.10;71.35;94423.16;5075863;28;20798;-70
2021/12/12 09:57:27;;;;;;;2.42;2.22;;;;;;;3.07;71.04;94427.31;5075496;28;20178;-70
2021/12/12 10:00:05;;;;;;;2.10;2.00;;;;;;;3.12;70.60;94429.91;5091802;28;20207;-70
2021/12/12 10:02:40;;;;;;;3.20;2.90;;;;;;;3.14;70.04;94433.09;5091711;28;20250;-70
2021/12/12 10:05:15;;;;;;;4.00;3.50;;;;;;;3.13;69.62;94427.97;5074685;28;20211;-70
2021/12/12 10:07:52;;;;;;;2.97;2.78;;;;;;;3.11;69.66;94433.72;5092026;28;20539;-69
2021/12/12 10:10:23;;;;;;;3.92;3.63;;;;;;;3.14;70.29;94443.19;5075307;28;20187;-69
2021/12/12 10:12:56;;;;;;;3.17;2.97;;;;;;;3.14;70.80;94432.28;5075014;28;20216;-70
2021/12/12 10:15:25;;;;;;;2.20;2.00;;;;;;;3.11;69.64;94438.38;5075750;28;20189;-70
2021/12/12 10:17:59;;;;;;;2.78;2.40;;;;;;;3.07;70.75;94442.88;5075545;28;20193;-70
2021/12/12 10:20:30;;;;;;;3.13;2.85;;;;;;;3.11;71.33;94452.00;5074680;28;20216;-69
2021/12/12 10:23:08;;;;;;;2.10;2.00;;;;;;;3.07;70.97;94443.69;5075413;28;20191;-69
2021/12/12 10:25:40;;;;;;;3.38;3.03;;;;;;;3.08;71.66;94449.91;5091561;28;20207;-69
2021/12/12 10:28:12;;;;;;;2.10;2.00;;;;;;;3.09;72.04;94452.34;5074791;28;20205;-69
2021/12/12 10:30:44;;;;;;;2.22;2.13;;;;;;;3.04;72.06;94441.59;5074331;28;20227;-69
2021/12/12 10:33:16;;;;;;;2.70;2.40;;;;;;;3.02;73.30;94451.22;5074301;28;20216;-69
2021/12/12 10:35:48;;;;;;;3.00;2.80;;;;;;;3.05;72.96;94447.84;5074134;28;20213;-69
2021/12/12 10:38:17;;;;;;;3.55;3.33;;;;;;;3.10;72.65;94450.41;5092572;28;20537;-69
2021/12/12 10:40:48;;;;;;;3.78;3.50;;;;;;;3.10;73.15;94458.59;5074238;28;20521;-70
2021/12/12 10:43:22;;;;;;;3.70;3.40;;;;;;;3.12;72.82;94464.50;5091672;28;20200;-70
2021/12/12 10:45:57;;;;;;;3.80;3.50;;;;;;;3.16;72.71;94472.84;5090731;28;20196;-70
2021/12/12 10:48:29;;;;;;;3.55;3.25;;;;;;;3.12;73.09;94480.84;5074259;28;20196;-70
2021/12/12 10:51:02;;;;;;;4.00;3.70;;;;;;;3.09;72.66;94479.59;5074920;28;20189;-68
2021/12/12 10:53:35;;;;;;;3.92;3.60;;;;;;;3.12;73.24;94489.03;5090645;28;20687;-67
2021/12/12 10:56:05;;;;;;;4.03;3.72;;;;;;;3.16;72.69;94486.47;5090931;28;20201;-67
2021/12/12 10:58:36;;;;;;;4.55;4.10;;;;;;;3.16;73.17;94475.56;5074587;28;20197;-67
2021/12/12 11:01:07;;;;;;;4.20;3.90;;;;;;;3.18;73.39;94478.78;5074869;28;20203;-67
2021/12/12 11:03:38;;;;;;;3.40;3.10;;;;;;;3.17;73.07;94491.63;5091412;28;20205;-67
2021/12/12 11:06:09;;;;;;;2.78;2.58;;;;;;;3.11;72.14;94492.88;5090861;28;20209;-67
2021/12/12 11:08:39;;;;;;;3.20;3.00;;;;;;;3.17;72.67;94496.25;5090799;28;20201;-70
2021/12/12 11:11:13;;;;;;;3.03;2.83;;;;;;;3.17;72.37;94499.78;5074585;28;20185;-69
2021/12/12 11:13:43;;;;;;;3.72;3.10;;;;;;;3.18;72.31;94498.66;5074528;28;20688;-70
2021/12/12 11:16:14;;;;;;;3.45;3.15;;;;;;;3.29;73.35;94501.88;5090870;28;20193;-70
2021/12/12 11:18:47;;;;;;;3.60;3.30;;;;;;;3.42;72.73;94502.84;5074411;28;20181;-69
2021/12/12 11:21:15;;;;;;;3.65;3.33;;;;;;;3.37;72.28;94498.34;5074786;28;20197;-70
2021/12/12 11:23:45;;;;;;;3.50;3.28;;;;;;;3.29;72.33;94499.94;5074957;28;20196;-70
2021/12/12 11:26:14;;;;;;;4.20;3.90;;;;;;;3.26;72.66;94506.03;5074062;28;20207;-70
2021/12/12 11:28:46;;;;;;;4.55;4.15;;;;;;;3.26;72.94;94510.69;5074245;28;20201;-70
2021/12/12 11:31:15;;;;;;;4.93;4.53;;;;;;;3.25;72.81;94507.16;5074755;28;20209;-70
2021/12/12 11:33:46;;;;;;;5.40;4.90;;;;;;;3.26;73.32;94506.03;5090955;28;20221;-70
2021/12/12 11:36:15;;;;;;;5.07;4.68;;;;;;;3.29;73.29;94510.03;5073855;28;20204;-70
2021/12/12 11:38:46;;;;;;;4.53;4.13;;;;;;;3.29;72.21;94505.41;5090439;28;20193;-70
2021/12/12 11:41:17;;;;;;;3.90;3.47;;;;;;;3.28;71.87;94501.06;5074594;28;20216;-70
2021/12/12 11:43:50;;;;;;;3.90;3.60;;;;;;;3.30;71.94;94500.75;5073654;28;20204;-70
2021/12/12 11:46:22;;;;;;;3.88;3.58;;;;;;;3.28;71.64;94498.34;5074436;28;20193;-70
2021/12/12 11:48:55;;;;;;;3.50;3.20;;;;;;;3.30;70.98;94501.53;5090454;28;20204;-70
2021/12/12 11:51:27;;;;;;;3.80;3.50;;;;;;;3.31;70.36;94505.88;5074169;28;20189;-71
2021/12/12 11:53:57;;;;;;;4.28;3.88;;;;;;;3.30;70.25;94500.75;5090293;28;20236;-70
2021/12/12 11:56:26;;;;;;;4.20;3.78;;;;;;;3.28;70.53;94494.81;5076367;28;20178;-70
2021/12/12 11:59:02;;;;;;;4.05;3.65;;;;;;;3.28;71.00;94501.06;5077863;28;20193;-70
2021/12/12 12:01:33;;;;;;;2.90;2.70;;;;;;;3.30;70.69;94506.97;5078051;28;20180;-70
2021/12/12 12:04:22;;;;;;;3.08;2.88;;;;;;;3.31;70.71;94516.78;5077122;28;20205;-69
2021/12/12 12:07:05;;;;;;;2.90;2.70;;;;;;;3.34;70.36;94515.31;5076906;28;20201;-70
2021/12/12 12:09:58;;;;;;;4.22;3.92;;;;;;;3.37;70.69;94522.88;5077785;28;20200;-69
2021/12/12 12:12:37;;;;;;;3.67;3.38;;;;;;;3.45;70.77;94530.28;5077772;28;20182;-70
2021/12/12 12:15:09;;;;;;;3.20;3.00;;;;;;;3.42;69.26;94530.91;5076400;28;20247;-70